Terminal Aerodrome Forecast
Issued by NWS

Home | Current Version | Previous Version | Text Only | Print | Product List | Glossary On
Versions: 1 2 3 4 5 6 7 8 9 10 11 12 13 14 15 16 17
000
FTUS42 KMLB 312125 AAB
TAFSUA
TAF AMD
KSUA 312125Z 3121/0118 20010G16KT P6SM VCSH SCT015 BKN040 BKN060
      TEMPO 3121/3122 VRB12G40KT 1SM TSRA BR BKN009CB BKN025
     FM010200 20014G21KT P6SM VCSH SCT015 BKN030 OVC060
     FM010400 18008KT P6SM VCSH FEW010 SCT040 BKN100
     FM010900 16005KT P6SM SCT040 OVC100=

USA.gov is the U.S. government's official web portal to all federal, state and local government web resources and services.